This is the latest recevied weather packets stored in our database for station/object K5OLV. If no packets are shown the sender has not sent any weather packets the latest 10 day(s).
| Time | Temp. | Humidity | Pressure | Rain* | Wind** | Luminosity | Snow |
|---|---|---|---|---|---|---|---|
| 1788032190 | 28.89° C | 68% | 1018.2 hPa | 0 mm | - | 641 W/m² | - |
| 1788031886 | 29.44° C | 69% | 1018.2 hPa | 0 mm | - | 654 W/m² | - |
| 1788031586 | 30.56° C | 66% | 1018.3 hPa | 0 mm | - | 628 W/m² | - |
| 1788031279 | 29.44° C | 67% | 1018.1 hPa | 0 mm | - | 567 W/m² | - |
| 1788030979 | 29.44° C | 68% | 1018.4 hPa | 0 mm | - | 645 W/m² | - |
| 1788030679 | 29.44° C | 68% | 1018.3 hPa | 0 mm | - | 698 W/m² | - |
| 1788030374 | 29.44° C | 69% | 1018.7 hPa | 0 mm | - | 694 W/m² | - |
| 1788030070 | 29.44° C | 72% | 1018.7 hPa | 0 mm | - | 689 W/m² | - |
| 1788029769 | 30.56° C | 69% | 1018.8 hPa | 0 mm | - | 158 W/m² | - |
| 1788029464 | 30° C | 70% | 1018.7 hPa | 0 mm | - | 665 W/m² | - |
| 1788029163 | 29.44° C | 71% | 1018.7 hPa | 0 mm | - | 665 W/m² | - |
| 1788028857 | 29.44° C | 72% | 1018.6 hPa | 0 mm | - | 666 W/m² | - |
| 1788028566 | 29.44° C | 72% | 1018.7 hPa | 0 mm | - | 683 W/m² | - |
| 1788028247 | 27.78° C | 74% | 1018.7 hPa | 0 mm | - | 644 W/m² | - |
| 1788027943 | 28.33° C | 76% | 1018.8 hPa | 0 mm | - | 706 W/m² | - |
| 1788027637 | 28.33° C | 75% | 1019 hPa | 0 mm | - | 289 W/m² | - |
| 1788027332 | 28.89° C | 74% | 1018.6 hPa | 0 mm | - | 256 W/m² | - |
| 1788027032 | 28.33° C | 75% | 1018.9 hPa | 0 mm | - | 744 W/m² | - |
| 1788026732 | 28.89° C | 74% | 1019 hPa | 0 mm | - | 734 W/m² | - |
| 1788026428 | 29.44° C | 72% | 1019 hPa | 0 mm | - | 757 W/m² | - |
| 1788026122 | 29.44° C | 75% | 1019 hPa | 0 mm | - | 749 W/m² | - |
| 1788025821 | 29.44° C | 75% | 1019.2 hPa | 0 mm | - | 760 W/m² | - |
| 1788025520 | 29.44° C | 72% | 1019.3 hPa | 0 mm | - | 777 W/m² | - |
| 1788025215 | 28.33° C | 73% | 1019.6 hPa | 0 mm | - | 823 W/m² | - |
| 1788024910 | 28.33° C | 76% | 1019.4 hPa | 0 mm | - | 868 W/m² | - |
* Rain latest hour (hover to see other rain measurements)
** Current wind speed in m/s (hover to see current wind gust speed)